This is the latest recevied weather packets stored in our database for station/object MKSRDG. If no packets are shown the sender has not sent any weather packets the latest 10 day(s).
| Time | Temp. | Humidity | Pressure | Rain* | Wind** | Luminosity | Snow |
|---|---|---|---|---|---|---|---|
| 1777479902 | 8.33° C | 82% | 1023.8 hPa | 0 mm | - | 545 W/m² | - |
| 1777479002 | 7.78° C | 86% | 1023.9 hPa | 0 mm | - | 501 W/m² | - |
| 1777478102 | 7.22° C | 87% | 1023.9 hPa | 0 mm | - | 432 W/m² | - |
| 1777477202 | 6.67° C | 89% | 1024 hPa | 0 mm | - | 313 W/m² | - |
| 1777476303 | 6.11° C | 89% | 1024 hPa | 0 mm | - | 264 W/m² | - |
| 1777475403 | 5.56° C | 92% | 1024 hPa | 0 mm | - | 237 W/m² | - |
| 1777474503 | 5° C | 93% | 1024 hPa | 0 mm | - | 69 W/m² | - |
| 1777473603 | 4.44° C | 94% | 1024.1 hPa | 0 mm | - | 35 W/m² | - |
| 1777472703 | 3.89° C | 94% | 1024.1 hPa | 0 mm | - | 30 W/m² | - |
| 1777471803 | 3.33° C | 94% | 1023.9 hPa | 0 mm | - | 26 W/m² | - |
| 1777470903 | 3.33° C | 94% | 1023.9 hPa | 0 mm | - | 23 W/m² | - |
| 1777470003 | 3.33° C | 94% | 1023.8 hPa | 0 mm | - | 18 W/m² | - |
| 1777469103 | 2.78° C | 94% | 1023.6 hPa | 0 mm | - | 12 W/m² | - |
| 1777468203 | 3.33° C | 93% | 1023.7 hPa | 0 mm | - | 0 W/m² | - |
| 1777467303 | 3.33° C | 93% | 1023.8 hPa | 0 mm | - | 0 W/m² | - |
| 1777466403 | 3.89° C | 93% | 1023.7 hPa | 0 mm | - | 0 W/m² | - |
| 1777465503 | 3.33° C | 94% | 1023.6 hPa | 0 mm | - | 0 W/m² | - |
| 1777464603 | 3.33° C | 93% | 1023.4 hPa | 0 mm | - | 0 W/m² | - |
| 1777463703 | 3.33° C | 94% | 1023.3 hPa | 0 mm | - | 0 W/m² | - |
| 1777462803 | 3.33° C | 93% | 1023.3 hPa | 0 mm | - | 0 W/m² | - |
| 1777461903 | 3.89° C | 93% | 1023.4 hPa | 0 mm | - | 0 W/m² | - |
| 1777461003 | 3.89° C | 93% | 1023.4 hPa | 0 mm | - | 0 W/m² | - |
| 1777460103 | 3.89° C | 92% | 1023.4 hPa | 0 mm | - | 0 W/m² | - |
| 1777459203 | 3.89° C | 92% | 1023.4 hPa | 0 mm | - | 0 W/m² | - |
| 1777458303 | 3.89° C | 92% | 1023.4 hPa | 0 mm | - | 0 W/m² | - |
* Rain latest hour (hover to see other rain measurements)
** Current wind speed in m/s (hover to see current wind gust speed)